Terminal Aerodrome Forecast
Issued by NWS

Home | Current Version | Previous Version | Graphics & Text | Print | Product List | Glossary On
Versions: 1 2 3 4 5 6 7 8 9 10 11 12 13 14 15 16 17 18 19 20 21
788
FTUS43 KABR 201009 AAA
TAFPIR
TAF AMD
KPIR 201009Z 2010/2106 VRB03KT 1/4SM FZFG VV001
     FM201400 VRB03KT 2SM BR SCT003
     FM201800 19004KT 6SM BR SKC
     FM210300 16004KT P6SM OVC015=

USA.gov is the U.S. government's official web portal to all federal, state and local government web resources and services.